Terminal Aerodrome Forecast
Issued by NWS

Home | Current Version | Previous Version | Text Only | Print | Product List | Glossary On
Versions: 1 2 3 4 5 6 7 8 9 10 11 12
000
FTUS45 KGGW 220500
TAFSDY
TAF
KSDY 220520Z 2206/2306 24007KT P6SM SCT140
     FM221200 VRB06KT P6SM VCSH BKN090
     FM221800 20008KT P6SM VCSH BKN080
     FM230300 26012KT P6SM VCSH BKN090
      AMD LTD TO CLD VIS AND WIND=

USA.gov is the U.S. government's official web portal to all federal, state and local government web resources and services.